Sharpes, Florida
Current Conditions -  °F | °C
As of 6:58 PM on Wednesday 28 Jan 2015 (Local Time) from KXMR Reporting Station
Few Clouds Few Clouds  
Wind Chill: 54°   Ceiling: Unl
Heat Index: 54°   Visibility: 10mi
Dew Point: 43°   Wind: 8mph
Humidity: 67%   Direction: 340°NNW
Pressure: 30.22"   Gusts: NA
Location:  28.43°N, 80.76°W
Report Text: KXMR 282358Z AUTO 34007KT 10SM FEW035 12/06 A3022 RMK AO2 SLP237 T01230063 10154 20123 52016 $
Loading
Personal Weather Stations






























Interactive Weather Map New forecast layout! Learn more

10-Day Weather Forecast

Advertisements
Track Severe Weather on mobile